sensor_id;sensor_type;location;lat;lon;timestamp;P1;durP1;ratioP1;P2;durP2;ratioP2
52878;SDS011;38747;53.140;6.498;2023-12-28T00:02:06;5.60;;;2.30;;
52878;SDS011;38747;53.140;6.498;2023-12-28T00:04:32;6.75;;;2.30;;
52878;SDS011;38747;53.140;6.498;2023-12-28T00:06:59;5.82;;;2.20;;
52878;SDS011;38747;53.140;6.498;2023-12-28T00:09:27;7.00;;;2.70;;
52878;SDS011;38747;53.140;6.498;2023-12-28T00:11:52;6.77;;;2.40;;
52878;SDS011;38747;53.140;6.498;2023-12-28T00:14:18;5.50;;;2.30;;
52878;SDS011;38747;53.140;6.498;2023-12-28T00:16:44;7.60;;;2.80;;
52878;SDS011;38747;53.140;6.498;2023-12-28T00:19:10;5.60;;;2.20;;
52878;SDS011;38747;53.140;6.498;2023-12-28T00:21:35;6.53;;;2.63;;
52878;SDS011;38747;53.140;6.498;2023-12-28T00:24:01;5.15;;;2.25;;
52878;SDS011;38747;53.140;6.498;2023-12-28T00:26:27;6.00;;;2.17;;
52878;SDS011;38747;53.140;6.498;2023-12-28T00:28:53;5.30;;;2.40;;
52878;SDS011;38747;53.140;6.498;2023-12-28T00:31:18;5.73;;;2.27;;
52878;SDS011;38747;53.140;6.498;2023-12-28T00:33:44;7.20;;;2.58;;
52878;SDS011;38747;53.140;6.498;2023-12-28T00:36:09;9.93;;;2.57;;
52878;SDS011;38747;53.140;6.498;2023-12-28T00:38:35;8.27;;;2.30;;
52878;SDS011;38747;53.140;6.498;2023-12-28T00:41:01;5.23;;;2.27;;
52878;SDS011;38747;53.140;6.498;2023-12-28T00:43:26;7.33;;;2.70;;
52878;SDS011;38747;53.140;6.498;2023-12-28T00:45:52;5.70;;;2.50;;
52878;SDS011;38747;53.140;6.498;2023-12-28T00:48:17;6.87;;;2.50;;
52878;SDS011;38747;53.140;6.498;2023-12-28T00:50:43;5.68;;;2.30;;
52878;SDS011;38747;53.140;6.498;2023-12-28T00:53:08;5.43;;;2.40;;
52878;SDS011;38747;53.140;6.498;2023-12-28T00:55:34;6.97;;;2.70;;
52878;SDS011;38747;53.140;6.498;2023-12-28T00:58:00;6.65;;;2.25;;
52878;SDS011;38747;53.140;6.498;2023-12-28T01:00:25;6.93;;;2.57;;
52878;SDS011;38747;53.140;6.498;2023-12-28T01:02:51;7.07;;;2.20;;
52878;SDS011;38747;53.140;6.498;2023-12-28T01:05:17;6.30;;;2.30;;
52878;SDS011;38747;53.140;6.498;2023-12-28T01:07:42;8.15;;;2.45;;
52878;SDS011;38747;53.140;6.498;2023-12-28T01:10:08;7.97;;;2.47;;
52878;SDS011;38747;53.140;6.498;2023-12-28T01:12:34;5.40;;;2.30;;
52878;SDS011;38747;53.140;6.498;2023-12-28T01:14:59;5.90;;;2.10;;
52878;SDS011;38747;53.140;6.498;2023-12-28T01:17:25;6.83;;;2.47;;
52878;SDS011;38747;53.140;6.498;2023-12-28T01:19:50;7.43;;;2.40;;
52878;SDS011;38747;53.140;6.498;2023-12-28T01:22:16;5.67;;;2.20;;
52878;SDS011;38747;53.140;6.498;2023-12-28T01:24:41;7.00;;;2.08;;
52878;SDS011;38747;53.140;6.498;2023-12-28T01:27:10;7.87;;;2.67;;
52878;SDS011;38747;53.140;6.498;2023-12-28T01:29:36;7.63;;;2.38;;
52878;SDS011;38747;53.140;6.498;2023-12-28T01:32:02;9.33;;;2.87;;
52878;SDS011;38747;53.140;6.498;2023-12-28T01:34:29;6.70;;;2.10;;
52878;SDS011;38747;53.140;6.498;2023-12-28T01:36:54;7.47;;;2.30;;
52878;SDS011;38747;53.140;6.498;2023-12-28T01:39:20;6.60;;;2.08;;
52878;SDS011;38747;53.140;6.498;2023-12-28T01:41:45;7.90;;;2.30;;
52878;SDS011;38747;53.140;6.498;2023-12-28T01:44:11;10.68;;;2.55;;
52878;SDS011;38747;53.140;6.498;2023-12-28T01:46:37;8.60;;;2.60;;
52878;SDS011;38747;53.140;6.498;2023-12-28T01:49:03;8.65;;;2.88;;
52878;SDS011;38747;53.140;6.498;2023-12-28T01:51:30;7.65;;;2.00;;
52878;SDS011;38747;53.140;6.498;2023-12-28T01:53:56;7.40;;;2.10;;
52878;SDS011;38747;53.140;6.498;2023-12-28T01:56:23;7.57;;;2.15;;
52878;SDS011;38747;53.140;6.498;2023-12-28T01:58:49;7.05;;;2.30;;
52878;SDS011;38747;53.140;6.498;2023-12-28T02:01:17;5.75;;;2.00;;
52878;SDS011;38747;53.140;6.498;2023-12-28T02:03:43;7.50;;;2.07;;
52878;SDS011;38747;53.140;6.498;2023-12-28T02:06:09;7.45;;;2.15;;
52878;SDS011;38747;53.140;6.498;2023-12-28T02:08:35;8.77;;;2.10;;
52878;SDS011;38747;53.140;6.498;2023-12-28T02:11:01;8.05;;;1.98;;
52878;SDS011;38747;53.140;6.498;2023-12-28T02:13:27;13.63;;;3.07;;
52878;SDS011;38747;53.140;6.498;2023-12-28T02:16:03;8.77;;;2.20;;
52878;SDS011;38747;53.140;6.498;2023-12-28T02:18:33;8.32;;;2.22;;
52878;SDS011;38747;53.140;6.498;2023-12-28T02:21:03;10.00;;;2.50;;
52878;SDS011;38747;53.140;6.498;2023-12-28T02:23:32;8.93;;;2.05;;
52878;SDS011;38747;53.140;6.498;2023-12-28T02:25:58;6.97;;;2.13;;
52878;SDS011;38747;53.140;6.498;2023-12-28T02:28:24;9.03;;;2.27;;
52878;SDS011;38747;53.140;6.498;2023-12-28T02:30:49;8.85;;;1.90;;
52878;SDS011;38747;53.140;6.498;2023-12-28T02:33:35;6.20;;;1.80;;
52878;SDS011;38747;53.140;6.498;2023-12-28T02:36:09;9.85;;;2.17;;
52878;SDS011;38747;53.140;6.498;2023-12-28T02:38:36;6.68;;;2.15;;
52878;SDS011;38747;53.140;6.498;2023-12-28T02:41:04;10.68;;;2.28;;
52878;SDS011;38747;53.140;6.498;2023-12-28T02:43:30;8.20;;;2.00;;
52878;SDS011;38747;53.140;6.498;2023-12-28T02:45:58;9.95;;;2.10;;
52878;SDS011;38747;53.140;6.498;2023-12-28T02:48:23;8.30;;;2.03;;
52878;SDS011;38747;53.140;6.498;2023-12-28T02:50:51;8.43;;;1.77;;
52878;SDS011;38747;53.140;6.498;2023-12-28T02:53:16;6.77;;;2.20;;
52878;SDS011;38747;53.140;6.498;2023-12-28T02:55:42;7.25;;;2.10;;
52878;SDS011;38747;53.140;6.498;2023-12-28T02:58:08;6.70;;;2.53;;
52878;SDS011;38747;53.140;6.498;2023-12-28T03:00:33;9.10;;;2.00;;
52878;SDS011;38747;53.140;6.498;2023-12-28T03:02:59;8.23;;;2.33;;
52878;SDS011;38747;53.140;6.498;2023-12-28T03:05:25;8.32;;;2.00;;
52878;SDS011;38747;53.140;6.498;2023-12-28T03:07:50;7.80;;;2.03;;
52878;SDS011;38747;53.140;6.498;2023-12-28T03:10:16;7.93;;;1.60;;
52878;SDS011;38747;53.140;6.498;2023-12-28T03:12:41;8.37;;;2.17;;
52878;SDS011;38747;53.140;6.498;2023-12-28T03:15:07;8.37;;;1.80;;
52878;SDS011;38747;53.140;6.498;2023-12-28T03:17:33;8.38;;;1.80;;
52878;SDS011;38747;53.140;6.498;2023-12-28T03:19:59;7.97;;;1.70;;
52878;SDS011;38747;53.140;6.498;2023-12-28T03:22:25;7.47;;;1.60;;
52878;SDS011;38747;53.140;6.498;2023-12-28T03:24:50;9.20;;;2.42;;
52878;SDS011;38747;53.140;6.498;2023-12-28T03:27:16;9.00;;;1.43;;
52878;SDS011;38747;53.140;6.498;2023-12-28T03:29:42;7.72;;;1.75;;
52878;SDS011;38747;53.140;6.498;2023-12-28T03:32:10;11.37;;;1.73;;
52878;SDS011;38747;53.140;6.498;2023-12-28T03:34:36;9.52;;;1.65;;
52878;SDS011;38747;53.140;6.498;2023-12-28T03:37:02;6.93;;;1.50;;
52878;SDS011;38747;53.140;6.498;2023-12-28T03:39:27;7.38;;;1.83;;
52878;SDS011;38747;53.140;6.498;2023-12-28T03:41:53;6.93;;;1.80;;
52878;SDS011;38747;53.140;6.498;2023-12-28T03:44:19;7.37;;;1.47;;
52878;SDS011;38747;53.140;6.498;2023-12-28T03:46:47;7.05;;;1.80;;
52878;SDS011;38747;53.140;6.498;2023-12-28T03:49:19;7.85;;;1.55;;
52878;SDS011;38747;53.140;6.498;2023-12-28T03:51:46;9.77;;;1.50;;
52878;SDS011;38747;53.140;6.498;2023-12-28T03:54:15;6.97;;;1.60;;
52878;SDS011;38747;53.140;6.498;2023-12-28T03:56:41;12.48;;;1.90;;
52878;SDS011;38747;53.140;6.498;2023-12-28T03:59:08;5.60;;;1.60;;
52878;SDS011;38747;53.140;6.498;2023-12-28T04:01:34;5.00;;;1.63;;
52878;SDS011;38747;53.140;6.498;2023-12-28T04:04:00;8.33;;;1.73;;
52878;SDS011;38747;53.140;6.498;2023-12-28T04:06:26;6.85;;;1.80;;
52878;SDS011;38747;53.140;6.498;2023-12-28T04:08:51;5.00;;;1.60;;
52878;SDS011;38747;53.140;6.498;2023-12-28T04:11:17;9.57;;;2.33;;
52878;SDS011;38747;53.140;6.498;2023-12-28T04:13:43;6.97;;;2.05;;
52878;SDS011;38747;53.140;6.498;2023-12-28T04:16:12;7.77;;;1.97;;
52878;SDS011;38747;53.140;6.498;2023-12-28T04:18:39;7.90;;;1.65;;
52878;SDS011;38747;53.140;6.498;2023-12-28T04:21:07;8.70;;;1.80;;
52878;SDS011;38747;53.140;6.498;2023-12-28T04:23:35;6.90;;;1.60;;
52878;SDS011;38747;53.140;6.498;2023-12-28T04:26:01;4.43;;;1.40;;
52878;SDS011;38747;53.140;6.498;2023-12-28T04:28:27;9.48;;;1.60;;
52878;SDS011;38747;53.140;6.498;2023-12-28T04:30:52;7.97;;;1.80;;
52878;SDS011;38747;53.140;6.498;2023-12-28T04:33:18;10.55;;;1.95;;
52878;SDS011;38747;53.140;6.498;2023-12-28T04:35:44;6.75;;;1.50;;
52878;SDS011;38747;53.140;6.498;2023-12-28T04:38:10;10.00;;;3.03;;
52878;SDS011;38747;53.140;6.498;2023-12-28T04:40:36;11.05;;;1.60;;
52878;SDS011;38747;53.140;6.498;2023-12-28T04:43:02;6.67;;;1.97;;
52878;SDS011;38747;53.140;6.498;2023-12-28T04:45:28;8.32;;;2.13;;
52878;SDS011;38747;53.140;6.498;2023-12-28T04:47:53;6.22;;;1.52;;
52878;SDS011;38747;53.140;6.498;2023-12-28T04:50:19;6.93;;;1.70;;
52878;SDS011;38747;53.140;6.498;2023-12-28T04:52:45;9.35;;;1.88;;
52878;SDS011;38747;53.140;6.498;2023-12-28T04:55:10;6.53;;;1.83;;
52878;SDS011;38747;53.140;6.498;2023-12-28T04:57:36;6.77;;;1.43;;
52878;SDS011;38747;53.140;6.498;2023-12-28T05:00:01;8.63;;;1.60;;
52878;SDS011;38747;53.140;6.498;2023-12-28T05:02:28;12.05;;;1.98;;
52878;SDS011;38747;53.140;6.498;2023-12-28T05:04:54;8.70;;;1.73;;
52878;SDS011;38747;53.140;6.498;2023-12-28T05:07:19;10.77;;;1.80;;
52878;SDS011;38747;53.140;6.498;2023-12-28T05:09:45;11.13;;;1.73;;
52878;SDS011;38747;53.140;6.498;2023-12-28T05:12:10;6.70;;;1.53;;
52878;SDS011;38747;53.140;6.498;2023-12-28T05:14:37;11.23;;;2.07;;
52878;SDS011;38747;53.140;6.498;2023-12-28T05:17:02;11.10;;;1.80;;
52878;SDS011;38747;53.140;6.498;2023-12-28T05:19:28;7.22;;;1.58;;
52878;SDS011;38747;53.140;6.498;2023-12-28T05:21:54;7.90;;;1.40;;
52878;SDS011;38747;53.140;6.498;2023-12-28T05:24:20;9.25;;;1.50;;
52878;SDS011;38747;53.140;6.498;2023-12-28T05:26:46;8.37;;;1.70;;
52878;SDS011;38747;53.140;6.498;2023-12-28T05:29:11;8.65;;;1.80;;
52878;SDS011;38747;53.140;6.498;2023-12-28T05:31:37;12.20;;;2.23;;
52878;SDS011;38747;53.140;6.498;2023-12-28T05:34:03;11.00;;;1.60;;
52878;SDS011;38747;53.140;6.498;2023-12-28T05:36:30;7.80;;;1.50;;
52878;SDS011;38747;53.140;6.498;2023-12-28T05:38:55;8.93;;;1.45;;
52878;SDS011;38747;53.140;6.498;2023-12-28T05:41:21;6.33;;;1.30;;
52878;SDS011;38747;53.140;6.498;2023-12-28T05:43:46;8.50;;;1.63;;
52878;SDS011;38747;53.140;6.498;2023-12-28T05:46:12;11.13;;;1.50;;
52878;SDS011;38747;53.140;6.498;2023-12-28T05:48:38;7.90;;;1.60;;
52878;SDS011;38747;53.140;6.498;2023-12-28T05:51:04;8.87;;;1.57;;
52878;SDS011;38747;53.140;6.498;2023-12-28T05:53:30;8.38;;;1.60;;
52878;SDS011;38747;53.140;6.498;2023-12-28T05:55:55;9.10;;;1.40;;
52878;SDS011;38747;53.140;6.498;2023-12-28T05:58:21;11.73;;;2.00;;
52878;SDS011;38747;53.140;6.498;2023-12-28T06:00:46;7.97;;;1.38;;
52878;SDS011;38747;53.140;6.498;2023-12-28T06:03:13;9.73;;;1.58;;
52878;SDS011;38747;53.140;6.498;2023-12-28T06:05:39;10.32;;;1.63;;
52878;SDS011;38747;53.140;6.498;2023-12-28T06:08:05;10.93;;;1.60;;
52878;SDS011;38747;53.140;6.498;2023-12-28T06:10:30;11.30;;;1.55;;
52878;SDS011;38747;53.140;6.498;2023-12-28T06:12:56;12.07;;;1.60;;
52878;SDS011;38747;53.140;6.498;2023-12-28T06:15:22;5.82;;;1.10;;
52878;SDS011;38747;53.140;6.498;2023-12-28T06:17:48;7.43;;;1.30;;
52878;SDS011;38747;53.140;6.498;2023-12-28T06:20:14;9.53;;;1.47;;
52878;SDS011;38747;53.140;6.498;2023-12-28T06:22:39;8.37;;;1.60;;
52878;SDS011;38747;53.140;6.498;2023-12-28T06:25:05;9.02;;;1.55;;
52878;SDS011;38747;53.140;6.498;2023-12-28T06:27:31;9.50;;;1.70;;
52878;SDS011;38747;53.140;6.498;2023-12-28T06:29:57;6.50;;;1.13;;
52878;SDS011;38747;53.140;6.498;2023-12-28T06:32:23;9.80;;;1.60;;
52878;SDS011;38747;53.140;6.498;2023-12-28T06:34:49;12.07;;;1.60;;
52878;SDS011;38747;53.140;6.498;2023-12-28T06:37:14;11.88;;;1.40;;
52878;SDS011;38747;53.140;6.498;2023-12-28T06:39:40;10.33;;;1.73;;
52878;SDS011;38747;53.140;6.498;2023-12-28T06:42:07;9.15;;;1.75;;
52878;SDS011;38747;53.140;6.498;2023-12-28T06:44:35;6.63;;;1.48;;
52878;SDS011;38747;53.140;6.498;2023-12-28T06:47:01;10.23;;;1.43;;
52878;SDS011;38747;53.140;6.498;2023-12-28T06:49:27;5.55;;;1.30;;
52878;SDS011;38747;53.140;6.498;2023-12-28T06:51:52;7.10;;;1.40;;
52878;SDS011;38747;53.140;6.498;2023-12-28T06:54:18;16.07;;;1.77;;
52878;SDS011;38747;53.140;6.498;2023-12-28T06:56:43;10.77;;;2.20;;
52878;SDS011;38747;53.140;6.498;2023-12-28T06:59:09;10.93;;;1.40;;
52878;SDS011;38747;53.140;6.498;2023-12-28T07:01:37;11.27;;;1.70;;
52878;SDS011;38747;53.140;6.498;2023-12-28T07:04:03;8.32;;;1.33;;
52878;SDS011;38747;53.140;6.498;2023-12-28T07:06:29;13.43;;;1.80;;
52878;SDS011;38747;53.140;6.498;2023-12-28T07:08:55;5.72;;;1.10;;
52878;SDS011;38747;53.140;6.498;2023-12-28T07:11:20;8.83;;;1.27;;
52878;SDS011;38747;53.140;6.498;2023-12-28T07:13:46;9.88;;;1.65;;
52878;SDS011;38747;53.140;6.498;2023-12-28T07:16:12;8.43;;;1.60;;
52878;SDS011;38747;53.140;6.498;2023-12-28T07:18:38;9.93;;;1.15;;
52878;SDS011;38747;53.140;6.498;2023-12-28T07:21:03;10.50;;;1.53;;
52878;SDS011;38747;53.140;6.498;2023-12-28T07:23:31;12.07;;;1.42;;
52878;SDS011;38747;53.140;6.498;2023-12-28T07:25:56;8.85;;;1.60;;
52878;SDS011;38747;53.140;6.498;2023-12-28T07:28:22;11.50;;;1.43;;
52878;SDS011;38747;53.140;6.498;2023-12-28T07:30:48;12.30;;;1.90;;
52878;SDS011;38747;53.140;6.498;2023-12-28T07:33:13;9.23;;;1.67;;
52878;SDS011;38747;53.140;6.498;2023-12-28T07:35:39;12.60;;;1.20;;
52878;SDS011;38747;53.140;6.498;2023-12-28T07:38:05;11.33;;;1.50;;
52878;SDS011;38747;53.140;6.498;2023-12-28T07:40:31;10.43;;;1.63;;
52878;SDS011;38747;53.140;6.498;2023-12-28T07:42:57;14.23;;;2.15;;
52878;SDS011;38747;53.140;6.498;2023-12-28T07:45:22;9.40;;;1.60;;
52878;SDS011;38747;53.140;6.498;2023-12-28T07:47:52;11.57;;;1.50;;
52878;SDS011;38747;53.140;6.498;2023-12-28T07:50:18;11.48;;;1.50;;
52878;SDS011;38747;53.140;6.498;2023-12-28T07:52:44;12.10;;;1.63;;
52878;SDS011;38747;53.140;6.498;2023-12-28T07:55:11;14.25;;;2.00;;
52878;SDS011;38747;53.140;6.498;2023-12-28T07:57:36;11.52;;;1.58;;
52878;SDS011;38747;53.140;6.498;2023-12-28T08:00:02;10.53;;;1.70;;
52878;SDS011;38747;53.140;6.498;2023-12-28T08:02:28;11.65;;;1.92;;
52878;SDS011;38747;53.140;6.498;2023-12-28T08:04:55;10.60;;;1.48;;
52878;SDS011;38747;53.140;6.498;2023-12-28T08:07:21;9.03;;;1.60;;
52878;SDS011;38747;53.140;6.498;2023-12-28T08:09:46;13.07;;;1.83;;
52878;SDS011;38747;53.140;6.498;2023-12-28T08:12:12;15.37;;;1.67;;
52878;SDS011;38747;53.140;6.498;2023-12-28T08:14:38;15.40;;;2.38;;
52878;SDS011;38747;53.140;6.498;2023-12-28T08:17:03;9.63;;;1.50;;
52878;SDS011;38747;53.140;6.498;2023-12-28T08:19:29;13.00;;;1.97;;
52878;SDS011;38747;53.140;6.498;2023-12-28T08:21:54;9.85;;;1.50;;
52878;SDS011;38747;53.140;6.498;2023-12-28T08:24:20;17.77;;;2.03;;
52878;SDS011;38747;53.140;6.498;2023-12-28T08:26:46;12.63;;;1.50;;
52878;SDS011;38747;53.140;6.498;2023-12-28T08:29:12;12.77;;;2.00;;
52878;SDS011;38747;53.140;6.498;2023-12-28T08:31:38;15.25;;;2.00;;
52878;SDS011;38747;53.140;6.498;2023-12-28T08:34:03;11.80;;;1.30;;
52878;SDS011;38747;53.140;6.498;2023-12-28T08:36:29;9.88;;;1.88;;
52878;SDS011;38747;53.140;6.498;2023-12-28T08:38:54;14.53;;;2.00;;
52878;SDS011;38747;53.140;6.498;2023-12-28T08:41:20;9.40;;;1.95;;
52878;SDS011;38747;53.140;6.498;2023-12-28T08:43:48;15.47;;;2.20;;
52878;SDS011;38747;53.140;6.498;2023-12-28T08:46:14;17.33;;;1.95;;
52878;SDS011;38747;53.140;6.498;2023-12-28T08:48:41;10.40;;;1.50;;
52878;SDS011;38747;53.140;6.498;2023-12-28T08:51:07;16.67;;;2.00;;
52878;SDS011;38747;53.140;6.498;2023-12-28T08:53:34;15.87;;;2.10;;
52878;SDS011;38747;53.140;6.498;2023-12-28T08:55:59;11.65;;;1.80;;
52878;SDS011;38747;53.140;6.498;2023-12-28T08:58:25;16.20;;;2.37;;
52878;SDS011;38747;53.140;6.498;2023-12-28T09:00:50;15.90;;;1.88;;
52878;SDS011;38747;53.140;6.498;2023-12-28T09:03:16;19.17;;;2.00;;
52878;SDS011;38747;53.140;6.498;2023-12-28T09:05:42;14.68;;;1.55;;
52878;SDS011;38747;53.140;6.498;2023-12-28T09:08:08;12.13;;;1.80;;
52878;SDS011;38747;53.140;6.498;2023-12-28T09:10:34;17.33;;;1.97;;
52878;SDS011;38747;53.140;6.498;2023-12-28T09:12:59;14.20;;;1.60;;
52878;SDS011;38747;53.140;6.498;2023-12-28T09:15:25;11.50;;;1.60;;
52878;SDS011;38747;53.140;6.498;2023-12-28T09:17:50;17.00;;;2.00;;
52878;SDS011;38747;53.140;6.498;2023-12-28T09:20:16;11.60;;;1.48;;
52878;SDS011;38747;53.140;6.498;2023-12-28T09:22:43;12.98;;;1.67;;
52878;SDS011;38747;53.140;6.498;2023-12-28T09:25:09;13.60;;;2.33;;
52878;SDS011;38747;53.140;6.498;2023-12-28T09:27:35;18.42;;;1.90;;
52878;SDS011;38747;53.140;6.498;2023-12-28T09:30:01;13.43;;;1.80;;
52878;SDS011;38747;53.140;6.498;2023-12-28T09:32:26;16.77;;;2.03;;
52878;SDS011;38747;53.140;6.498;2023-12-28T09:34:52;12.93;;;1.92;;
52878;SDS011;38747;53.140;6.498;2023-12-28T09:37:18;14.37;;;1.77;;
52878;SDS011;38747;53.140;6.498;2023-12-28T09:39:43;14.00;;;2.70;;
52878;SDS011;38747;53.140;6.498;2023-12-28T09:42:13;18.00;;;2.47;;
52878;SDS011;38747;53.140;6.498;2023-12-28T09:44:50;12.02;;;1.50;;
52878;SDS011;38747;53.140;6.498;2023-12-28T09:47:16;14.85;;;2.15;;
52878;SDS011;38747;53.140;6.498;2023-12-28T09:49:42;10.87;;;1.40;;
52878;SDS011;38747;53.140;6.498;2023-12-28T09:52:09;16.95;;;1.88;;
52878;SDS011;38747;53.140;6.498;2023-12-28T09:54:35;17.90;;;1.77;;
52878;SDS011;38747;53.140;6.498;2023-12-28T09:57:00;11.57;;;1.83;;
52878;SDS011;38747;53.140;6.498;2023-12-28T09:59:29;12.80;;;1.77;;
52878;SDS011;38747;53.140;6.498;2023-12-28T10:01:58;10.98;;;1.85;;
52878;SDS011;38747;53.140;6.498;2023-12-28T10:04:28;13.68;;;1.80;;
52878;SDS011;38747;53.140;6.498;2023-12-28T10:06:54;11.87;;;1.60;;
52878;SDS011;38747;53.140;6.498;2023-12-28T10:09:20;8.85;;;1.23;;
52878;SDS011;38747;53.140;6.498;2023-12-28T10:11:47;13.32;;;1.75;;
52878;SDS011;38747;53.140;6.498;2023-12-28T10:14:13;15.77;;;2.50;;
52878;SDS011;38747;53.140;6.498;2023-12-28T10:16:42;14.15;;;2.25;;
52878;SDS011;38747;53.140;6.498;2023-12-28T10:19:07;12.73;;;1.70;;
52878;SDS011;38747;53.140;6.498;2023-12-28T10:21:33;12.45;;;1.40;;
52878;SDS011;38747;53.140;6.498;2023-12-28T10:23:59;10.98;;;1.30;;
52878;SDS011;38747;53.140;6.498;2023-12-28T10:26:25;11.87;;;1.80;;
52878;SDS011;38747;53.140;6.498;2023-12-28T10:29:01;12.18;;;1.75;;
52878;SDS011;38747;53.140;6.498;2023-12-28T10:31:28;17.48;;;2.10;;
52878;SDS011;38747;53.140;6.498;2023-12-28T10:33:57;11.95;;;1.73;;
52878;SDS011;38747;53.140;6.498;2023-12-28T10:36:24;13.10;;;1.73;;
52878;SDS011;38747;53.140;6.498;2023-12-28T10:38:52;11.55;;;2.15;;
52878;SDS011;38747;53.140;6.498;2023-12-28T10:41:19;14.43;;;2.25;;
52878;SDS011;38747;53.140;6.498;2023-12-28T10:44:03;10.10;;;1.45;;
52878;SDS011;38747;53.140;6.498;2023-12-28T10:46:33;17.70;;;1.80;;
52878;SDS011;38747;53.140;6.498;2023-12-28T10:49:11;12.50;;;1.93;;
52878;SDS011;38747;53.140;6.498;2023-12-28T10:51:39;12.30;;;1.60;;
52878;SDS011;38747;53.140;6.498;2023-12-28T10:57:03;12.18;;;1.52;;
52878;SDS011;38747;53.140;6.498;2023-12-28T11:02:18;14.03;;;1.80;;
52878;SDS011;38747;53.140;6.498;2023-12-28T11:04:49;11.38;;;2.13;;
52878;SDS011;38747;53.140;6.498;2023-12-28T11:07:17;14.68;;;2.67;;
52878;SDS011;38747;53.140;6.498;2023-12-28T11:09:44;15.85;;;1.90;;
52878;SDS011;38747;53.140;6.498;2023-12-28T11:12:10;15.68;;;2.03;;
52878;SDS011;38747;53.140;6.498;2023-12-28T11:14:39;14.70;;;2.00;;
52878;SDS011;38747;53.140;6.498;2023-12-28T11:17:06;15.30;;;2.28;;
52878;SDS011;38747;53.140;6.498;2023-12-28T11:19:32;9.30;;;1.60;;
52878;SDS011;38747;53.140;6.498;2023-12-28T11:22:04;9.88;;;1.60;;
52878;SDS011;38747;53.140;6.498;2023-12-28T11:24:33;12.45;;;1.83;;
52878;SDS011;38747;53.140;6.498;2023-12-28T11:26:59;12.00;;;2.13;;
52878;SDS011;38747;53.140;6.498;2023-12-28T11:29:28;14.02;;;1.75;;
52878;SDS011;38747;53.140;6.498;2023-12-28T11:31:58;11.70;;;1.55;;
52878;SDS011;38747;53.140;6.498;2023-12-28T11:34:33;11.00;;;1.58;;
52878;SDS011;38747;53.140;6.498;2023-12-28T11:37:00;14.40;;;2.13;;
52878;SDS011;38747;53.140;6.498;2023-12-28T11:39:30;12.90;;;1.93;;
52878;SDS011;38747;53.140;6.498;2023-12-28T11:42:00;8.13;;;1.70;;
52878;SDS011;38747;53.140;6.498;2023-12-28T11:44:28;13.88;;;2.08;;
52878;SDS011;38747;53.140;6.498;2023-12-28T11:47:10;12.90;;;2.03;;
52878;SDS011;38747;53.140;6.498;2023-12-28T11:49:40;14.38;;;2.30;;
52878;SDS011;38747;53.140;6.498;2023-12-28T11:52:07;16.97;;;3.03;;
52878;SDS011;38747;53.140;6.498;2023-12-28T11:54:34;8.82;;;1.67;;
52878;SDS011;38747;53.140;6.498;2023-12-28T11:57:00;13.90;;;1.77;;
52878;SDS011;38747;53.140;6.498;2023-12-28T11:59:25;17.50;;;2.40;;
52878;SDS011;38747;53.140;6.498;2023-12-28T12:01:51;12.20;;;1.90;;
52878;SDS011;38747;53.140;6.498;2023-12-28T12:04:18;20.10;;;4.07;;
52878;SDS011;38747;53.140;6.498;2023-12-28T12:06:44;17.33;;;2.80;;
52878;SDS011;38747;53.140;6.498;2023-12-28T12:09:16;11.37;;;2.07;;
52878;SDS011;38747;53.140;6.498;2023-12-28T12:11:47;15.43;;;2.60;;
52878;SDS011;38747;53.140;6.498;2023-12-28T12:14:13;14.40;;;2.53;;
52878;SDS011;38747;53.140;6.498;2023-12-28T12:16:39;17.53;;;2.70;;
52878;SDS011;38747;53.140;6.498;2023-12-28T12:19:05;13.65;;;1.70;;
52878;SDS011;38747;53.140;6.498;2023-12-28T12:21:34;12.07;;;1.95;;
52878;SDS011;38747;53.140;6.498;2023-12-28T12:24:00;19.73;;;2.67;;
52878;SDS011;38747;53.140;6.498;2023-12-28T12:26:26;15.20;;;2.33;;
52878;SDS011;38747;53.140;6.498;2023-12-28T12:28:54;17.42;;;2.35;;
52878;SDS011;38747;53.140;6.498;2023-12-28T12:31:20;14.20;;;2.00;;
52878;SDS011;38747;53.140;6.498;2023-12-28T12:33:46;15.00;;;1.90;;
52878;SDS011;38747;53.140;6.498;2023-12-28T12:36:12;13.87;;;1.90;;
52878;SDS011;38747;53.140;6.498;2023-12-28T12:38:38;14.77;;;1.90;;
52878;SDS011;38747;53.140;6.498;2023-12-28T12:41:05;10.57;;;1.85;;
52878;SDS011;38747;53.140;6.498;2023-12-28T12:43:30;13.40;;;2.20;;
52878;SDS011;38747;53.140;6.498;2023-12-28T12:45:56;13.32;;;1.77;;
52878;SDS011;38747;53.140;6.498;2023-12-28T12:48:22;13.93;;;2.00;;
52878;SDS011;38747;53.140;6.498;2023-12-28T12:50:47;14.90;;;2.83;;
52878;SDS011;38747;53.140;6.498;2023-12-28T12:53:13;13.70;;;2.00;;
52878;SDS011;38747;53.140;6.498;2023-12-28T12:55:39;10.98;;;2.05;;
52878;SDS011;38747;53.140;6.498;2023-12-28T12:58:09;12.50;;;1.70;;
52878;SDS011;38747;53.140;6.498;2023-12-28T13:00:35;13.23;;;2.10;;
52878;SDS011;38747;53.140;6.498;2023-12-28T13:03:00;17.20;;;3.10;;
52878;SDS011;38747;53.140;6.498;2023-12-28T13:05:27;19.67;;;3.10;;
52878;SDS011;38747;53.140;6.498;2023-12-28T13:07:54;12.05;;;1.73;;
52878;SDS011;38747;53.140;6.498;2023-12-28T13:10:19;16.63;;;2.08;;
52878;SDS011;38747;53.140;6.498;2023-12-28T13:12:45;18.73;;;2.10;;
52878;SDS011;38747;53.140;6.498;2023-12-28T13:15:11;16.27;;;2.25;;
52878;SDS011;38747;53.140;6.498;2023-12-28T13:17:36;8.70;;;1.77;;
52878;SDS011;38747;53.140;6.498;2023-12-28T13:20:03;12.30;;;1.65;;
52878;SDS011;38747;53.140;6.498;2023-12-28T13:22:31;13.37;;;1.80;;
52878;SDS011;38747;53.140;6.498;2023-12-28T13:24:57;13.50;;;2.28;;
52878;SDS011;38747;53.140;6.498;2023-12-28T13:27:23;15.07;;;2.63;;
52878;SDS011;38747;53.140;6.498;2023-12-28T13:29:49;11.10;;;1.87;;
52878;SDS011;38747;53.140;6.498;2023-12-28T13:32:14;12.07;;;2.00;;
52878;SDS011;38747;53.140;6.498;2023-12-28T13:34:40;15.07;;;2.07;;
52878;SDS011;38747;53.140;6.498;2023-12-28T13:37:06;13.90;;;1.98;;
52878;SDS011;38747;53.140;6.498;2023-12-28T13:39:31;14.10;;;2.50;;
52878;SDS011;38747;53.140;6.498;2023-12-28T13:42:03;14.10;;;1.80;;
52878;SDS011;38747;53.140;6.498;2023-12-28T13:44:35;8.70;;;1.52;;
52878;SDS011;38747;53.140;6.498;2023-12-28T13:47:01;14.48;;;2.60;;
52878;SDS011;38747;53.140;6.498;2023-12-28T13:49:27;10.13;;;1.70;;
52878;SDS011;38747;53.140;6.498;2023-12-28T13:51:55;13.77;;;1.90;;
52878;SDS011;38747;53.140;6.498;2023-12-28T13:54:20;14.48;;;1.90;;
52878;SDS011;38747;53.140;6.498;2023-12-28T13:56:46;13.07;;;2.13;;
52878;SDS011;38747;53.140;6.498;2023-12-28T13:59:12;11.38;;;1.90;;
52878;SDS011;38747;53.140;6.498;2023-12-28T14:01:39;13.50;;;1.90;;
52878;SDS011;38747;53.140;6.498;2023-12-28T14:04:05;13.90;;;2.38;;
52878;SDS011;38747;53.140;6.498;2023-12-28T14:06:31;10.03;;;2.10;;
52878;SDS011;38747;53.140;6.498;2023-12-28T14:08:57;13.38;;;2.75;;
52878;SDS011;38747;53.140;6.498;2023-12-28T14:11:25;9.63;;;1.80;;
52878;SDS011;38747;53.140;6.498;2023-12-28T14:13:51;13.07;;;2.15;;
52878;SDS011;38747;53.140;6.498;2023-12-28T14:16:17;10.97;;;1.70;;
52878;SDS011;38747;53.140;6.498;2023-12-28T14:18:42;13.83;;;1.70;;
52878;SDS011;38747;53.140;6.498;2023-12-28T14:21:08;16.60;;;3.23;;
52878;SDS011;38747;53.140;6.498;2023-12-28T14:23:35;17.50;;;2.72;;
52878;SDS011;38747;53.140;6.498;2023-12-28T14:26:12;13.93;;;2.30;;
52878;SDS011;38747;53.140;6.498;2023-12-28T14:28:40;9.73;;;1.85;;
52878;SDS011;38747;53.140;6.498;2023-12-28T14:31:07;12.48;;;1.65;;
52878;SDS011;38747;53.140;6.498;2023-12-28T14:33:34;15.20;;;2.33;;
52878;SDS011;38747;53.140;6.498;2023-12-28T14:36:00;12.00;;;2.97;;
52878;SDS011;38747;53.140;6.498;2023-12-28T14:38:27;13.65;;;2.17;;
52878;SDS011;38747;53.140;6.498;2023-12-28T14:40:53;13.48;;;1.83;;
52878;SDS011;38747;53.140;6.498;2023-12-28T14:43:19;17.03;;;2.13;;